sensor_id;sensor_type;location;lat;lon;timestamp;temperature;humidity
69009;SHT31;56065;52.472;13.380;2023-11-22T00:00:22;2.64;84.05
69009;SHT31;56065;52.472;13.380;2023-11-22T00:02:47;2.65;84.05
69009;SHT31;56065;52.472;13.380;2023-11-22T00:05:13;2.67;84.34
69009;SHT31;56065;52.472;13.380;2023-11-22T00:07:38;2.70;84.84
69009;SHT31;56065;52.472;13.380;2023-11-22T00:10:04;2.74;84.30
69009;SHT31;56065;52.472;13.380;2023-11-22T00:12:30;2.84;84.12
69009;SHT31;56065;52.472;13.380;2023-11-22T00:15:06;2.85;84.06
69009;SHT31;56065;52.472;13.380;2023-11-22T00:17:33;2.84;83.15
69009;SHT31;56065;52.472;13.380;2023-11-22T00:19:59;2.98;83.68
69009;SHT31;56065;52.472;13.380;2023-11-22T00:22:27;3.09;83.84
69009;SHT31;56065;52.472;13.380;2023-11-22T00:24:53;3.11;83.38
69009;SHT31;56065;52.472;13.380;2023-11-22T00:27:18;3.11;83.11
69009;SHT31;56065;52.472;13.380;2023-11-22T00:29:44;3.19;83.08
69009;SHT31;56065;52.472;13.380;2023-11-22T00:32:11;3.15;83.49
69009;SHT31;56065;52.472;13.380;2023-11-22T00:34:36;3.13;82.95
69009;SHT31;56065;52.472;13.380;2023-11-22T00:37:01;3.23;83.61
69009;SHT31;56065;52.472;13.380;2023-11-22T00:39:27;3.23;83.18
69009;SHT31;56065;52.472;13.380;2023-11-22T00:41:52;3.29;83.02
69009;SHT31;56065;52.472;13.380;2023-11-22T00:44:17;3.30;82.58
69009;SHT31;56065;52.472;13.380;2023-11-22T00:46:43;3.29;82.38
69009;SHT31;56065;52.472;13.380;2023-11-22T00:49:10;3.30;82.82
69009;SHT31;56065;52.472;13.380;2023-11-22T00:51:36;3.20;82.96
69009;SHT31;56065;52.472;13.380;2023-11-22T00:54:01;3.16;82.67
69009;SHT31;56065;52.472;13.380;2023-11-22T00:56:26;3.25;83.41
69009;SHT31;56065;52.472;13.380;2023-11-22T00:58:53;3.19;82.18
69009;SHT31;56065;52.472;13.380;2023-11-22T01:01:19;3.20;82.72
69009;SHT31;56065;52.472;13.380;2023-11-22T01:03:45;3.16;82.47
69009;SHT31;56065;52.472;13.380;2023-11-22T01:06:12;3.18;82.59
69009;SHT31;56065;52.472;13.380;2023-11-22T01:08:37;3.22;83.01
69009;SHT31;56065;52.472;13.380;2023-11-22T01:11:03;3.25;82.55
69009;SHT31;56065;52.472;13.380;2023-11-22T01:13:29;3.16;82.50
69009;SHT31;56065;52.472;13.380;2023-11-22T01:15:54;3.16;82.08
69009;SHT31;56065;52.472;13.380;2023-11-22T01:18:20;3.05;83.12
69009;SHT31;56065;52.472;13.380;2023-11-22T01:20:45;2.96;83.26
69009;SHT31;56065;52.472;13.380;2023-11-22T01:23:10;2.71;83.25
69009;SHT31;56065;52.472;13.380;2023-11-22T01:25:36;2.54;83.51
69009;SHT31;56065;52.472;13.380;2023-11-22T01:28:01;2.47;83.81
69009;SHT31;56065;52.472;13.380;2023-11-22T01:30:27;2.44;83.52
69009;SHT31;56065;52.472;13.380;2023-11-22T01:32:53;2.40;84.05
69009;SHT31;56065;52.472;13.380;2023-11-22T01:35:20;2.37;84.57
69009;SHT31;56065;52.472;13.380;2023-11-22T01:37:45;2.29;84.04
69009;SHT31;56065;52.472;13.380;2023-11-22T01:40:11;2.22;84.33
69009;SHT31;56065;52.472;13.380;2023-11-22T01:42:38;2.16;85.49
69009;SHT31;56065;52.472;13.380;2023-11-22T01:45:06;2.12;84.67
69009;SHT31;56065;52.472;13.380;2023-11-22T01:47:32;2.07;84.37
69009;SHT31;56065;52.472;13.380;2023-11-22T01:49:57;1.98;84.55
69009;SHT31;56065;52.472;13.380;2023-11-22T01:52:22;1.95;84.06
69009;SHT31;56065;52.472;13.380;2023-11-22T01:54:48;1.92;84.48
69009;SHT31;56065;52.472;13.380;2023-11-22T01:57:14;1.89;84.79
69009;SHT31;56065;52.472;13.380;2023-11-22T01:59:40;1.81;84.52
69009;SHT31;56065;52.472;13.380;2023-11-22T02:02:06;1.78;84.95
69009;SHT31;56065;52.472;13.380;2023-11-22T02:04:32;1.72;84.31
69009;SHT31;56065;52.472;13.380;2023-11-22T02:06:57;1.68;84.12
69009;SHT31;56065;52.472;13.380;2023-11-22T02:09:22;1.61;83.43
69009;SHT31;56065;52.472;13.380;2023-11-22T02:11:48;1.59;82.94
69009;SHT31;56065;52.472;13.380;2023-11-22T02:14:14;1.54;82.83
69009;SHT31;56065;52.472;13.380;2023-11-22T02:16:40;1.55;82.52
69009;SHT31;56065;52.472;13.380;2023-11-22T02:19:07;1.52;81.06
69009;SHT31;56065;52.472;13.380;2023-11-22T02:21:36;1.47;80.29
69009;SHT31;56065;52.472;13.380;2023-11-22T02:24:02;1.45;80.54
69009;SHT31;56065;52.472;13.380;2023-11-22T02:26:27;1.44;80.06
69009;SHT31;56065;52.472;13.380;2023-11-22T02:28:53;1.44;80.26
69009;SHT31;56065;52.472;13.380;2023-11-22T02:31:18;1.41;80.04
69009;SHT31;56065;52.472;13.380;2023-11-22T02:33:43;1.37;80.49
69009;SHT31;56065;52.472;13.380;2023-11-22T02:36:09;1.22;80.40
69009;SHT31;56065;52.472;13.380;2023-11-22T02:38:38;1.24;79.51
69009;SHT31;56065;52.472;13.380;2023-11-22T02:41:03;1.24;80.43
69009;SHT31;56065;52.472;13.380;2023-11-22T02:43:30;1.19;80.05
69009;SHT31;56065;52.472;13.380;2023-11-22T02:45:55;1.20;79.32
69009;SHT31;56065;52.472;13.380;2023-11-22T02:48:20;1.14;79.75
69009;SHT31;56065;52.472;13.380;2023-11-22T02:50:46;1.13;80.19
69009;SHT31;56065;52.472;13.380;2023-11-22T02:53:11;1.16;80.54
69009;SHT31;56065;52.472;13.380;2023-11-22T02:55:37;1.12;79.85
69009;SHT31;56065;52.472;13.380;2023-11-22T02:58:02;1.04;79.16
69009;SHT31;56065;52.472;13.380;2023-11-22T03:00:28;1.04;79.11
69009;SHT31;56065;52.472;13.380;2023-11-22T03:02:55;1.04;79.37
69009;SHT31;56065;52.472;13.380;2023-11-22T03:05:21;1.06;79.96
69009;SHT31;56065;52.472;13.380;2023-11-22T03:07:46;1.03;79.10
69009;SHT31;56065;52.472;13.380;2023-11-22T03:10:12;1.00;78.99
69009;SHT31;56065;52.472;13.380;2023-11-22T03:12:38;1.01;79.93
69009;SHT31;56065;52.472;13.380;2023-11-22T03:15:04;1.00;80.11
69009;SHT31;56065;52.472;13.380;2023-11-22T03:17:31;0.97;79.60
69009;SHT31;56065;52.472;13.380;2023-11-22T03:19:58;0.94;79.65
69009;SHT31;56065;52.472;13.380;2023-11-22T03:22:24;0.97;80.16
69009;SHT31;56065;52.472;13.380;2023-11-22T03:24:50;0.97;80.18
69009;SHT31;56065;52.472;13.380;2023-11-22T03:27:16;0.97;79.82
69009;SHT31;56065;52.472;13.380;2023-11-22T03:29:41;0.92;80.48
69009;SHT31;56065;52.472;13.380;2023-11-22T03:32:06;0.93;80.96
69009;SHT31;56065;52.472;13.380;2023-11-22T03:34:32;0.89;81.23
69009;SHT31;56065;52.472;13.380;2023-11-22T03:36:57;0.90;80.97
69009;SHT31;56065;52.472;13.380;2023-11-22T03:39:23;0.94;81.55
69009;SHT31;56065;52.472;13.380;2023-11-22T03:41:48;0.92;81.15
69009;SHT31;56065;52.472;13.380;2023-11-22T03:44:13;0.94;81.22
69009;SHT31;56065;52.472;13.380;2023-11-22T03:46:39;0.96;81.82
69009;SHT31;56065;52.472;13.380;2023-11-22T03:49:05;0.94;82.12
69009;SHT31;56065;52.472;13.380;2023-11-22T03:51:34;0.92;81.63
69009;SHT31;56065;52.472;13.380;2023-11-22T03:54:00;0.87;82.11
69009;SHT31;56065;52.472;13.380;2023-11-22T03:56:27;0.86;83.00
69009;SHT31;56065;52.472;13.380;2023-11-22T03:58:53;0.82;83.30
69009;SHT31;56065;52.472;13.380;2023-11-22T04:01:18;0.82;83.80
69009;SHT31;56065;52.472;13.380;2023-11-22T04:03:46;0.79;84.19
69009;SHT31;56065;52.472;13.380;2023-11-22T04:06:11;0.79;84.34
69009;SHT31;56065;52.472;13.380;2023-11-22T04:08:36;0.77;84.29
69009;SHT31;56065;52.472;13.380;2023-11-22T04:11:03;0.72;84.49
69009;SHT31;56065;52.472;13.380;2023-11-22T04:13:30;0.70;84.45
69009;SHT31;56065;52.472;13.380;2023-11-22T04:15:56;0.70;84.40
69009;SHT31;56065;52.472;13.380;2023-11-22T04:18:21;0.77;83.64
69009;SHT31;56065;52.472;13.380;2023-11-22T04:20:46;0.70;84.07
69009;SHT31;56065;52.472;13.380;2023-11-22T04:23:13;0.72;83.81
69009;SHT31;56065;52.472;13.380;2023-11-22T04:25:41;0.70;83.74
69009;SHT31;56065;52.472;13.380;2023-11-22T04:28:07;0.69;83.99
69009;SHT31;56065;52.472;13.380;2023-11-22T04:30:34;0.68;84.13
69009;SHT31;56065;52.472;13.380;2023-11-22T04:32:59;0.69;84.53
69009;SHT31;56065;52.472;13.380;2023-11-22T04:35:25;0.65;84.83
69009;SHT31;56065;52.472;13.380;2023-11-22T04:37:50;0.68;84.71
69009;SHT31;56065;52.472;13.380;2023-11-22T04:40:15;0.63;84.78
69009;SHT31;56065;52.472;13.380;2023-11-22T04:42:41;0.63;84.63
69009;SHT31;56065;52.472;13.380;2023-11-22T04:45:06;0.69;84.30
69009;SHT31;56065;52.472;13.380;2023-11-22T04:47:32;0.66;84.96
69009;SHT31;56065;52.472;13.380;2023-11-22T04:49:58;0.63;84.34
69009;SHT31;56065;52.472;13.380;2023-11-22T04:52:23;0.56;84.68
69009;SHT31;56065;52.472;13.380;2023-11-22T04:54:49;0.58;85.05
69009;SHT31;56065;52.472;13.380;2023-11-22T04:57:14;0.56;85.12
69009;SHT31;56065;52.472;13.380;2023-11-22T04:59:40;0.58;85.44
69009;SHT31;56065;52.472;13.380;2023-11-22T05:02:06;0.56;84.75
69009;SHT31;56065;52.472;13.380;2023-11-22T05:04:32;0.55;84.38
69009;SHT31;56065;52.472;13.380;2023-11-22T05:06:57;0.52;84.29
69009;SHT31;56065;52.472;13.380;2023-11-22T05:09:23;0.45;84.66
69009;SHT31;56065;52.472;13.380;2023-11-22T05:11:49;0.49;84.67
69009;SHT31;56065;52.472;13.380;2023-11-22T05:14:14;0.48;84.68
69009;SHT31;56065;52.472;13.380;2023-11-22T05:16:40;0.46;84.71
69009;SHT31;56065;52.472;13.380;2023-11-22T05:19:05;0.45;85.25
69009;SHT31;56065;52.472;13.380;2023-11-22T05:21:31;0.38;84.20
69009;SHT31;56065;52.472;13.380;2023-11-22T05:23:57;0.41;83.72
69009;SHT31;56065;52.472;13.380;2023-11-22T05:26:22;0.42;83.60
69009;SHT31;56065;52.472;13.380;2023-11-22T05:28:48;0.44;84.14
69009;SHT31;56065;52.472;13.380;2023-11-22T05:31:13;0.42;83.98
69009;SHT31;56065;52.472;13.380;2023-11-22T05:33:39;0.40;84.17
69009;SHT31;56065;52.472;13.380;2023-11-22T05:36:05;0.35;83.06
69009;SHT31;56065;52.472;13.380;2023-11-22T05:38:31;0.35;83.58
69009;SHT31;56065;52.472;13.380;2023-11-22T05:40:59;0.34;83.66
69009;SHT31;56065;52.472;13.380;2023-11-22T05:43:25;0.34;83.51
69009;SHT31;56065;52.472;13.380;2023-11-22T05:45:54;0.31;83.26
69009;SHT31;56065;52.472;13.380;2023-11-22T05:48:20;0.29;83.78
69009;SHT31;56065;52.472;13.380;2023-11-22T05:50:47;0.32;83.88
69009;SHT31;56065;52.472;13.380;2023-11-22T05:53:12;0.32;83.84
69009;SHT31;56065;52.472;13.380;2023-11-22T05:55:49;0.29;83.64
69009;SHT31;56065;52.472;13.380;2023-11-22T05:58:15;0.29;83.16
69009;SHT31;56065;52.472;13.380;2023-11-22T06:00:45;0.29;83.55
69009;SHT31;56065;52.472;13.380;2023-11-22T06:03:11;0.25;83.34
69009;SHT31;56065;52.472;13.380;2023-11-22T06:05:37;0.24;83.12
69009;SHT31;56065;52.472;13.380;2023-11-22T06:08:02;0.22;83.18
69009;SHT31;56065;52.472;13.380;2023-11-22T06:10:28;0.19;83.25
69009;SHT31;56065;52.472;13.380;2023-11-22T06:12:53;0.22;82.99
69009;SHT31;56065;52.472;13.380;2023-11-22T06:15:19;0.21;83.39
69009;SHT31;56065;52.472;13.380;2023-11-22T06:17:46;0.12;83.29
69009;SHT31;56065;52.472;13.380;2023-11-22T06:20:12;0.15;83.32
69009;SHT31;56065;52.472;13.380;2023-11-22T06:22:38;0.14;83.40
69009;SHT31;56065;52.472;13.380;2023-11-22T06:25:08;0.12;83.16
69009;SHT31;56065;52.472;13.380;2023-11-22T06:27:33;0.14;83.12
69009;SHT31;56065;52.472;13.380;2023-11-22T06:29:58;0.17;82.80
69009;SHT31;56065;52.472;13.380;2023-11-22T06:32:24;0.18;83.18
69009;SHT31;56065;52.472;13.380;2023-11-22T06:34:49;0.14;83.13
69009;SHT31;56065;52.472;13.380;2023-11-22T06:37:15;0.14;83.01
69009;SHT31;56065;52.472;13.380;2023-11-22T06:39:40;0.12;83.27
69009;SHT31;56065;52.472;13.380;2023-11-22T06:42:05;0.15;83.27
69009;SHT31;56065;52.472;13.380;2023-11-22T06:44:31;0.15;82.87
69009;SHT31;56065;52.472;13.380;2023-11-22T06:46:57;0.17;83.27
69009;SHT31;56065;52.472;13.380;2023-11-22T06:49:22;0.18;83.49
69009;SHT31;56065;52.472;13.380;2023-11-22T06:51:48;0.21;83.32
69009;SHT31;56065;52.472;13.380;2023-11-22T06:54:13;0.26;83.62
69009;SHT31;56065;52.472;13.380;2023-11-22T06:56:38;0.25;83.12
69009;SHT31;56065;52.472;13.380;2023-11-22T06:59:04;0.31;83.40
69009;SHT31;56065;52.472;13.380;2023-11-22T07:01:29;0.32;83.44
69009;SHT31;56065;52.472;13.380;2023-11-22T07:03:55;0.38;83.61
69009;SHT31;56065;52.472;13.380;2023-11-22T07:06:20;0.46;83.77
69009;SHT31;56065;52.472;13.380;2023-11-22T07:08:47;0.42;83.73
69009;SHT31;56065;52.472;13.380;2023-11-22T07:11:13;0.52;83.24
69009;SHT31;56065;52.472;13.380;2023-11-22T07:13:39;0.56;82.93
69009;SHT31;56065;52.472;13.380;2023-11-22T07:16:05;0.61;83.52
69009;SHT31;56065;52.472;13.380;2023-11-22T07:18:32;0.61;83.73
69009;SHT31;56065;52.472;13.380;2023-11-22T07:20:59;0.72;82.83
69009;SHT31;56065;52.472;13.380;2023-11-22T07:23:25;1.00;82.64
69009;SHT31;56065;52.472;13.380;2023-11-22T07:25:54;1.43;82.04
69009;SHT31;56065;52.472;13.380;2023-11-22T07:28:20;1.79;80.91
69009;SHT31;56065;52.472;13.380;2023-11-22T07:30:45;2.22;80.19
69009;SHT31;56065;52.472;13.380;2023-11-22T07:33:10;2.50;79.45
69009;SHT31;56065;52.472;13.380;2023-11-22T07:35:36;2.65;78.09
69009;SHT31;56065;52.472;13.380;2023-11-22T07:38:01;2.99;78.05
69009;SHT31;56065;52.472;13.380;2023-11-22T07:40:28;3.44;77.87
69009;SHT31;56065;52.472;13.380;2023-11-22T07:42:54;3.64;75.74
69009;SHT31;56065;52.472;13.380;2023-11-22T07:45:19;3.80;74.82
69009;SHT31;56065;52.472;13.380;2023-11-22T07:47:45;3.88;75.23
69009;SHT31;56065;52.472;13.380;2023-11-22T07:50:12;4.24;74.83
69009;SHT31;56065;52.472;13.380;2023-11-22T07:52:37;4.53;73.95
69009;SHT31;56065;52.472;13.380;2023-11-22T07:55:05;4.60;72.77
69009;SHT31;56065;52.472;13.380;2023-11-22T07:57:35;4.96;72.45
69009;SHT31;56065;52.472;13.380;2023-11-22T08:00:01;5.48;71.39
69009;SHT31;56065;52.472;13.380;2023-11-22T08:02:29;5.82;70.88
69009;SHT31;56065;52.472;13.380;2023-11-22T08:04:56;5.63;69.92
69009;SHT31;56065;52.472;13.380;2023-11-22T08:07:21;5.65;70.49
69009;SHT31;56065;52.472;13.380;2023-11-22T08:09:48;5.14;69.96
69009;SHT31;56065;52.472;13.380;2023-11-22T08:12:14;4.83;71.04
69009;SHT31;56065;52.472;13.380;2023-11-22T08:14:39;4.70;71.45
69009;SHT31;56065;52.472;13.380;2023-11-22T08:17:05;4.27;71.65
69009;SHT31;56065;52.472;13.380;2023-11-22T08:19:31;3.86;72.22
69009;SHT31;56065;52.472;13.380;2023-11-22T08:21:56;3.55;72.68
69009;SHT31;56065;52.472;13.380;2023-11-22T08:24:22;3.77;73.18
69009;SHT31;56065;52.472;13.380;2023-11-22T08:26:48;4.24;71.17
69009;SHT31;56065;52.472;13.380;2023-11-22T08:29:13;4.60;69.92
69009;SHT31;56065;52.472;13.380;2023-11-22T08:31:40;4.66;68.76
69009;SHT31;56065;52.472;13.380;2023-11-22T08:34:05;4.63;68.67
69009;SHT31;56065;52.472;13.380;2023-11-22T08:36:32;5.03;68.43
69009;SHT31;56065;52.472;13.380;2023-11-22T08:39:02;5.28;67.67
69009;SHT31;56065;52.472;13.380;2023-11-22T08:41:28;5.59;67.50
69009;SHT31;56065;52.472;13.380;2023-11-22T08:43:58;6.11;67.18
69009;SHT31;56065;52.472;13.380;2023-11-22T08:46:23;6.33;65.84
69009;SHT31;56065;52.472;13.380;2023-11-22T08:48:51;6.61;65.31
69009;SHT31;56065;52.472;13.380;2023-11-22T08:51:18;6.30;65.00
69009;SHT31;56065;52.472;13.380;2023-11-22T08:53:43;5.83;65.57
69009;SHT31;56065;52.472;13.380;2023-11-22T08:56:10;5.92;66.20
69009;SHT31;56065;52.472;13.380;2023-11-22T08:58:37;6.07;65.52
69009;SHT31;56065;52.472;13.380;2023-11-22T09:01:02;5.82;65.55
69009;SHT31;56065;52.472;13.380;2023-11-22T09:03:28;5.58;65.92
69009;SHT31;56065;52.472;13.380;2023-11-22T09:05:54;5.70;66.14
69009;SHT31;56065;52.472;13.380;2023-11-22T09:08:20;4.79;66.61
69009;SHT31;56065;52.472;13.380;2023-11-22T09:10:46;5.18;66.23
69009;SHT31;56065;52.472;13.380;2023-11-22T09:13:11;5.75;67.15
69009;SHT31;56065;52.472;13.380;2023-11-22T09:15:40;7.18;64.43
69009;SHT31;56065;52.472;13.380;2023-11-22T09:18:06;7.30;63.81
69009;SHT31;56065;52.472;13.380;2023-11-22T09:20:33;8.36;61.66
69009;SHT31;56065;52.472;13.380;2023-11-22T09:22:58;8.43;60.61
69009;SHT31;56065;52.472;13.380;2023-11-22T09:25:25;7.74;60.00
69009;SHT31;56065;52.472;13.380;2023-11-22T09:27:52;7.27;62.11
69009;SHT31;56065;52.472;13.380;2023-11-22T09:30:22;6.87;63.33
69009;SHT31;56065;52.472;13.380;2023-11-22T09:33:07;7.03;64.15
69009;SHT31;56065;52.472;13.380;2023-11-22T09:35:33;7.51;63.04
69009;SHT31;56065;52.472;13.380;2023-11-22T09:37:59;7.74;62.08
69009;SHT31;56065;52.472;13.380;2023-11-22T09:40:26;7.92;61.04
69009;SHT31;56065;52.472;13.380;2023-11-22T09:42:57;8.35;60.45
69009;SHT31;56065;52.472;13.380;2023-11-22T09:45:23;9.48;58.58
69009;SHT31;56065;52.472;13.380;2023-11-22T09:47:50;10.57;56.53
69009;SHT31;56065;52.472;13.380;2023-11-22T09:50:21;11.56;55.82
69009;SHT31;56065;52.472;13.380;2023-11-22T09:52:51;12.45;53.98
69009;SHT31;56065;52.472;13.380;2023-11-22T09:55:20;12.34;52.62
69009;SHT31;56065;52.472;13.380;2023-11-22T09:57:47;12.36;52.05
69009;SHT31;56065;52.472;13.380;2023-11-22T10:00:14;13.50;50.62
69009;SHT31;56065;52.472;13.380;2023-11-22T10:02:44;13.25;51.18
69009;SHT31;56065;52.472;13.380;2023-11-22T10:05:09;12.52;51.36
69009;SHT31;56065;52.472;13.380;2023-11-22T10:07:35;12.92;52.08
69009;SHT31;56065;52.472;13.380;2023-11-22T10:10:04;12.70;52.60
69009;SHT31;56065;52.472;13.380;2023-11-22T10:12:31;12.53;52.35
69009;SHT31;56065;52.472;13.380;2023-11-22T10:15:16;12.43;52.55
69009;SHT31;56065;52.472;13.380;2023-11-22T10:18:01;12.76;50.66
69009;SHT31;56065;52.472;13.380;2023-11-22T10:20:39;12.53;51.57
69009;SHT31;56065;52.472;13.380;2023-11-22T10:23:12;13.07;52.21
69009;SHT31;56065;52.472;13.380;2023-11-22T10:25:45;13.38;50.08
69009;SHT31;56065;52.472;13.380;2023-11-22T10:28:13;13.27;49.69
69009;SHT31;56065;52.472;13.380;2023-11-22T10:30:38;13.08;50.52
69009;SHT31;56065;52.472;13.380;2023-11-22T10:33:05;12.67;50.92
69009;SHT31;56065;52.472;13.380;2023-11-22T10:35:31;12.55;52.20
69009;SHT31;56065;52.472;13.380;2023-11-22T10:37:59;11.93;52.23
69009;SHT31;56065;52.472;13.380;2023-11-22T10:40:24;11.99;52.27
69009;SHT31;56065;52.472;13.380;2023-11-22T10:42:50;12.04;51.87
69009;SHT31;56065;52.472;13.380;2023-11-22T10:45:19;11.81;52.79
69009;SHT31;56065;52.472;13.380;2023-11-22T10:47:45;12.10;53.13
69009;SHT31;56065;52.472;13.380;2023-11-22T10:50:11;12.29;51.86
69009;SHT31;56065;52.472;13.380;2023-11-22T10:52:41;12.66;52.48
69009;SHT31;56065;52.472;13.380;2023-11-22T10:55:08;13.07;51.75
69009;SHT31;56065;52.472;13.380;2023-11-22T10:57:42;13.47;51.73
69009;SHT31;56065;52.472;13.380;2023-11-22T11:00:10;13.06;50.50
69009;SHT31;56065;52.472;13.380;2023-11-22T11:02:44;13.57;50.97
69009;SHT31;56065;52.472;13.380;2023-11-22T11:05:31;14.91;48.49
69009;SHT31;56065;52.472;13.380;2023-11-22T11:08:09;15.32;47.58
69009;SHT31;56065;52.472;13.380;2023-11-22T11:10:44;15.22;47.39
69009;SHT31;56065;52.472;13.380;2023-11-22T11:13:14;15.80;47.03
69009;SHT31;56065;52.472;13.380;2023-11-22T11:15:41;16.18;46.51
69009;SHT31;56065;52.472;13.380;2023-11-22T11:18:10;16.79;46.88
69009;SHT31;56065;52.472;13.380;2023-11-22T11:20:53;16.04;45.40
69009;SHT31;56065;52.472;13.380;2023-11-22T11:23:21;16.31;47.92
69009;SHT31;56065;52.472;13.380;2023-11-22T11:28:20;14.73;47.76
69009;SHT31;56065;52.472;13.380;2023-11-22T11:30:46;14.83;48.43
69009;SHT31;56065;52.472;13.380;2023-11-22T11:33:35;15.79;50.82
69009;SHT31;56065;52.472;13.380;2023-11-22T11:36:02;15.62;47.30
69009;SHT31;56065;52.472;13.380;2023-11-22T11:38:34;15.53;47.64
69009;SHT31;56065;52.472;13.380;2023-11-22T11:41:09;15.63;46.52
69009;SHT31;56065;52.472;13.380;2023-11-22T11:43:43;15.91;47.96
69009;SHT31;56065;52.472;13.380;2023-11-22T11:46:13;16.32;45.84
69009;SHT31;56065;52.472;13.380;2023-11-22T11:48:43;16.47;46.58
69009;SHT31;56065;52.472;13.380;2023-11-22T11:51:09;16.80;46.84
69009;SHT31;56065;52.472;13.380;2023-11-22T11:53:34;17.24;45.85
69009;SHT31;56065;52.472;13.380;2023-11-22T11:56:01;17.48;48.15
69009;SHT31;56065;52.472;13.380;2023-11-22T11:58:27;17.13;45.46
69009;SHT31;56065;52.472;13.380;2023-11-22T12:00:54;17.71;44.42
69009;SHT31;56065;52.472;13.380;2023-11-22T12:03:20;17.07;45.61
69009;SHT31;56065;52.472;13.380;2023-11-22T12:05:47;17.27;45.58
69009;SHT31;56065;52.472;13.380;2023-11-22T12:08:14;15.70;44.90
69009;SHT31;56065;52.472;13.380;2023-11-22T12:10:41;16.79;45.15
69009;SHT31;56065;52.472;13.380;2023-11-22T12:13:07;15.19;45.51
69009;SHT31;56065;52.472;13.380;2023-11-22T12:15:33;14.57;46.56
69009;SHT31;56065;52.472;13.380;2023-11-22T12:17:59;14.02;47.65
69009;SHT31;56065;52.472;13.380;2023-11-22T12:20:26;13.71;48.84
69009;SHT31;56065;52.472;13.380;2023-11-22T12:22:59;13.37;48.41
69009;SHT31;56065;52.472;13.380;2023-11-22T12:25:28;12.67;49.09
69009;SHT31;56065;52.472;13.380;2023-11-22T12:27:56;11.93;49.76
69009;SHT31;56065;52.472;13.380;2023-11-22T12:30:35;10.96;52.38
69009;SHT31;56065;52.472;13.380;2023-11-22T12:33:05;10.25;53.58
69009;SHT31;56065;52.472;13.380;2023-11-22T12:35:31;9.85;54.13
69009;SHT31;56065;52.472;13.380;2023-11-22T12:37:59;9.00;55.30
69009;SHT31;56065;52.472;13.380;2023-11-22T12:40:27;8.45;56.54
69009;SHT31;56065;52.472;13.380;2023-11-22T12:42:52;8.28;57.78
69009;SHT31;56065;52.472;13.380;2023-11-22T12:45:22;8.32;57.12
69009;SHT31;56065;52.472;13.380;2023-11-22T12:47:49;7.98;55.83
69009;SHT31;56065;52.472;13.380;2023-11-22T12:50:35;7.63;57.78
69009;SHT31;56065;52.472;13.380;2023-11-22T12:53:14;7.33;60.31
69009;SHT31;56065;52.472;13.380;2023-11-22T12:55:44;7.49;59.98
69009;SHT31;56065;52.472;13.380;2023-11-22T12:58:10;7.46;58.87
69009;SHT31;56065;52.472;13.380;2023-11-22T13:00:37;7.24;58.04
69009;SHT31;56065;52.472;13.380;2023-11-22T13:03:05;6.91;58.63
69009;SHT31;56065;52.472;13.380;2023-11-22T13:05:30;7.01;58.48
69009;SHT31;56065;52.472;13.380;2023-11-22T13:07:56;7.22;58.76
69009;SHT31;56065;52.472;13.380;2023-11-22T13:10:21;7.19;58.34
69009;SHT31;56065;52.472;13.380;2023-11-22T13:12:52;7.13;58.37
69009;SHT31;56065;52.472;13.380;2023-11-22T13:15:18;6.99;59.02
69009;SHT31;56065;52.472;13.380;2023-11-22T13:17:46;7.03;59.59
69009;SHT31;56065;52.472;13.380;2023-11-22T13:20:11;6.95;59.06
69009;SHT31;56065;52.472;13.380;2023-11-22T13:22:41;6.79;59.17
69009;SHT31;56065;52.472;13.380;2023-11-22T13:25:09;6.67;60.08
69009;SHT31;56065;52.472;13.380;2023-11-22T13:27:38;6.41;60.89
69009;SHT31;56065;52.472;13.380;2023-11-22T13:30:05;6.50;60.30
69009;SHT31;56065;52.472;13.380;2023-11-22T13:32:31;6.33;60.93
69009;SHT31;56065;52.472;13.380;2023-11-22T13:34:56;6.37;61.35
69009;SHT31;56065;52.472;13.380;2023-11-22T13:37:23;5.99;61.59
69009;SHT31;56065;52.472;13.380;2023-11-22T13:39:49;6.02;61.55
69009;SHT31;56065;52.472;13.380;2023-11-22T13:42:14;5.80;62.33
69009;SHT31;56065;52.472;13.380;2023-11-22T13:44:39;5.85;61.65
69009;SHT31;56065;52.472;13.380;2023-11-22T13:47:06;5.63;63.18
69009;SHT31;56065;52.472;13.380;2023-11-22T13:49:36;5.54;63.45
69009;SHT31;56065;52.472;13.380;2023-11-22T13:52:02;5.48;63.08
69009;SHT31;56065;52.472;13.380;2023-11-22T13:54:28;5.62;63.46
69009;SHT31;56065;52.472;13.380;2023-11-22T13:56:53;5.35;63.75
69009;SHT31;56065;52.472;13.380;2023-11-22T13:59:19;5.42;63.85
69009;SHT31;56065;52.472;13.380;2023-11-22T14:01:45;5.20;64.02
69009;SHT31;56065;52.472;13.380;2023-11-22T14:04:10;5.35;63.67
69009;SHT31;56065;52.472;13.380;2023-11-22T14:06:36;5.14;64.76
69009;SHT31;56065;52.472;13.380;2023-11-22T14:09:01;5.16;65.31
69009;SHT31;56065;52.472;13.380;2023-11-22T14:11:26;5.04;65.14
69009;SHT31;56065;52.472;13.380;2023-11-22T14:13:52;4.90;65.06
69009;SHT31;56065;52.472;13.380;2023-11-22T14:16:17;4.87;65.11
69009;SHT31;56065;52.472;13.380;2023-11-22T14:18:43;4.76;65.28
69009;SHT31;56065;52.472;13.380;2023-11-22T14:21:08;4.70;65.61
69009;SHT31;56065;52.472;13.380;2023-11-22T14:23:35;4.65;65.51
69009;SHT31;56065;52.472;13.380;2023-11-22T14:26:00;4.55;65.71
69009;SHT31;56065;52.472;13.380;2023-11-22T14:28:27;4.58;65.57
69009;SHT31;56065;52.472;13.380;2023-11-22T14:30:52;4.41;65.88
69009;SHT31;56065;52.472;13.380;2023-11-22T14:33:20;4.34;66.15
69009;SHT31;56065;52.472;13.380;2023-11-22T14:35:45;4.24;66.53
69009;SHT31;56065;52.472;13.380;2023-11-22T14:38:10;4.17;66.48
69009;SHT31;56065;52.472;13.380;2023-11-22T14:40:36;3.98;67.27
69009;SHT31;56065;52.472;13.380;2023-11-22T14:43:04;3.84;67.86
69009;SHT31;56065;52.472;13.380;2023-11-22T14:45:30;3.81;68.13
69009;SHT31;56065;52.472;13.380;2023-11-22T14:47:56;3.76;67.80
69009;SHT31;56065;52.472;13.380;2023-11-22T14:50:22;3.66;68.17
69009;SHT31;56065;52.472;13.380;2023-11-22T14:52:50;3.87;68.54
69009;SHT31;56065;52.472;13.380;2023-11-22T14:55:16;3.86;67.81
69009;SHT31;56065;52.472;13.380;2023-11-22T14:57:43;3.83;68.39
69009;SHT31;56065;52.472;13.380;2023-11-22T15:00:09;3.83;68.31
69009;SHT31;56065;52.472;13.380;2023-11-22T15:02:38;3.71;68.37
69009;SHT31;56065;52.472;13.380;2023-11-22T15:05:04;3.71;69.19
69009;SHT31;56065;52.472;13.380;2023-11-22T15:07:34;3.64;69.67
69009;SHT31;56065;52.472;13.380;2023-11-22T15:10:01;3.62;69.23
69009;SHT31;56065;52.472;13.380;2023-11-22T15:12:26;3.55;69.23
69009;SHT31;56065;52.472;13.380;2023-11-22T15:14:56;3.43;69.81
69009;SHT31;56065;52.472;13.380;2023-11-22T15:17:21;3.52;70.14
69009;SHT31;56065;52.472;13.380;2023-11-22T15:19:46;3.50;69.83
69009;SHT31;56065;52.472;13.380;2023-11-22T15:22:12;3.44;69.36
69009;SHT31;56065;52.472;13.380;2023-11-22T15:24:37;3.42;69.95
69009;SHT31;56065;52.472;13.380;2023-11-22T15:27:03;3.39;70.35